createdAt,value
2018-04-09T01:58:45.657Z,26.88
2018-04-09T01:58:46.172Z,27.26
2018-04-09T01:58:46.772Z,26.88
2018-04-09T01:58:47.371Z,27.26
2018-04-09T01:58:47.972Z,27.26
2018-04-09T01:59:42.013Z,31.07
2018-04-09T01:59:42.611Z,31.26
2018-04-09T01:59:43.209Z,31.36
2018-04-09T01:59:43.810Z,31.36
2018-04-09T01:59:44.409Z,31.74
2018-04-09T01:59:45.010Z,31.64
2018-04-09T01:59:45.612Z,32.03
2018-04-09T02:00:39.675Z,31.36
2018-04-09T02:00:40.263Z,31.36
2018-04-09T02:00:40.862Z,31.16
2018-04-09T02:00:41.462Z,30.79
2018-04-09T02:00:42.060Z,30.88
2018-04-09T02:00:42.661Z,31.16
2018-04-09T02:00:43.264Z,30.69
2018-04-09T02:01:37.319Z,32.98
2018-04-09T02:01:37.916Z,33.36
2018-04-09T02:01:38.514Z,33.17
2018-04-09T02:01:39.115Z,33.36
2018-04-09T02:01:39.713Z,33.84
2018-04-09T02:01:40.313Z,33.74
2018-04-09T02:01:40.913Z,33.74
2018-04-09T02:02:34.995Z,35.84
2018-04-09T02:02:35.567Z,35.64
2018-04-09T02:02:36.167Z,36.03
2018-04-09T02:02:36.766Z,36.22
2018-04-09T02:02:37.365Z,36.12
2018-04-09T02:02:37.966Z,36.03
2018-04-09T02:02:38.566Z,36.03
2018-04-09T02:03:32.624Z,33.55
2018-04-09T02:03:33.218Z,33.55
2018-04-09T02:03:33.818Z,33.64
2018-04-09T02:03:34.418Z,33.64
2018-04-09T02:03:35.018Z,33.64
2018-04-09T02:03:35.617Z,33.64
2018-04-09T02:03:36.218Z,33.55
2018-04-09T02:04:29.764Z,32.60
2018-04-09T02:04:30.362Z,32.40
2018-04-09T02:04:30.962Z,32.60
2018-04-09T02:04:31.560Z,32.60
2018-04-09T02:04:32.160Z,32.50
2018-04-09T02:04:32.760Z,32.50
2018-04-09T02:04:33.360Z,32.50
2018-04-09T02:04:33.962Z,32.69
2018-04-09T02:05:27.928Z,30.21
2018-04-09T02:05:28.523Z,30.02
2018-04-09T02:05:29.125Z,29.93
2018-04-09T02:05:29.722Z,30.12
2018-04-09T02:05:30.321Z,30.21
2018-04-09T02:05:30.926Z,30.12
2018-04-09T02:05:31.524Z,29.64
2018-04-09T02:06:45.553Z,31.93
2018-04-09T02:06:46.146Z,31.84
2018-04-09T02:06:46.742Z,31.93
2018-04-09T02:06:47.341Z,31.84
2018-04-09T02:06:47.941Z,31.84
2018-04-09T02:06:48.541Z,32.03
2018-04-09T02:06:49.140Z,31.84
2018-04-09T02:07:43.232Z,34.60
2018-04-09T02:07:43.795Z,34.41
2018-04-09T02:07:44.395Z,34.50
2018-04-09T02:07:44.994Z,34.50
2018-04-09T02:07:45.598Z,34.41
2018-04-09T02:07:46.194Z,34.69
2018-04-09T02:07:46.794Z,34.50
2018-04-09T02:08:40.859Z,33.55
2018-04-09T02:08:41.448Z,33.64
2018-04-09T02:08:42.046Z,33.74
2018-04-09T02:08:42.646Z,34.03
2018-04-09T02:08:43.247Z,34.03
2018-04-09T02:08:43.846Z,33.84
2018-04-09T02:08:44.446Z,33.84
2018-04-09T02:09:38.502Z,32.98
2018-04-09T02:09:39.099Z,32.98
2018-04-09T02:09:39.699Z,32.60
2018-04-09T02:09:40.299Z,32.69
2018-04-09T02:09:40.898Z,32.31
2018-04-09T02:09:41.499Z,32.79
2018-04-09T02:09:42.098Z,32.50
2018-04-09T02:10:36.154Z,33.74
2018-04-09T02:10:36.752Z,33.64
2018-04-09T02:10:37.350Z,33.55
2018-04-09T02:10:37.950Z,33.36
2018-04-09T02:10:38.550Z,33.26
2018-04-09T02:10:39.150Z,33.36
2018-04-09T02:10:39.749Z,33.07
2018-04-09T02:11:33.806Z,33.93
2018-04-09T02:11:34.402Z,34.03
2018-04-09T02:11:35.003Z,34.03
2018-04-09T02:11:35.603Z,34.03
2018-04-09T02:11:36.203Z,33.93
2018-04-09T02:11:36.802Z,34.03
2018-04-09T02:11:37.402Z,33.84
2018-04-09T02:12:30.949Z,32.69
2018-04-09T02:12:31.544Z,32.69
2018-04-09T02:12:32.143Z,32.50
2018-04-09T02:12:32.743Z,32.50
2018-04-09T02:12:33.343Z,32.69
2018-04-09T02:12:33.942Z,32.79
2018-04-09T02:12:34.542Z,33.07
2018-04-09T02:12:35.146Z,33.17
2018-04-09T02:13:29.235Z,30.79
2018-04-09T02:13:29.808Z,30.98
2018-04-09T02:13:30.409Z,30.98
2018-04-09T02:13:31.008Z,30.79
2018-04-09T02:13:31.607Z,30.69
2018-04-09T02:13:32.207Z,30.79
2018-04-09T02:13:32.808Z,30.79
2018-04-09T02:14:26.872Z,29.64
2018-04-09T02:14:27.460Z,29.64
2018-04-09T02:14:28.059Z,29.36
2018-04-09T02:14:28.659Z,29.36
2018-04-09T02:14:29.263Z,29.36
2018-04-09T02:14:29.860Z,29.36
2018-04-09T02:14:30.459Z,29.55
2018-04-09T02:15:24.513Z,31.55
2018-04-09T02:15:25.111Z,31.64
2018-04-09T02:15:25.713Z,31.64
2018-04-09T02:15:26.311Z,31.74
2018-04-09T02:15:26.911Z,31.64
2018-04-09T02:15:27.511Z,31.26
2018-04-09T02:15:28.113Z,31.55
2018-04-09T02:16:22.167Z,32.12
2018-04-09T02:16:22.764Z,32.21
2018-04-09T02:16:23.363Z,32.12
2018-04-09T02:16:23.968Z,32.03
2018-04-09T02:16:24.563Z,32.03
2018-04-09T02:16:25.178Z,31.93
2018-04-09T02:16:25.768Z,31.93
2018-04-09T02:17:19.818Z,30.98
2018-04-09T02:17:20.416Z,31.16
2018-04-09T02:17:21.014Z,30.98
2018-04-09T02:17:21.615Z,30.88
2018-04-09T02:17:22.215Z,30.79
2018-04-09T02:17:22.817Z,30.79
2018-04-09T02:17:23.416Z,30.69
2018-04-09T02:18:17.502Z,31.16
2018-04-09T02:18:18.067Z,31.16
2018-04-09T02:18:18.666Z,31.16
2018-04-09T02:18:19.266Z,30.98
2018-04-09T02:18:19.868Z,30.98
2018-04-09T02:18:20.466Z,30.88
2018-04-09T02:18:21.066Z,30.98
2018-04-09T02:19:14.610Z,30.79
2018-04-09T02:19:15.208Z,30.88
2018-04-09T02:19:15.810Z,30.79
2018-04-09T02:19:16.407Z,30.79
2018-04-09T02:19:17.007Z,30.79
2018-04-09T02:19:17.613Z,30.88
2018-04-09T02:19:18.208Z,30.88
2018-04-09T02:19:18.810Z,30.79
2018-04-09T02:20:12.875Z,32.69
2018-04-09T02:20:13.474Z,32.79
2018-04-09T02:20:14.074Z,32.69
2018-04-09T02:20:14.676Z,32.88
2018-04-09T02:20:15.272Z,32.60
2018-04-09T02:20:15.873Z,32.79
2018-04-09T02:20:16.474Z,32.79
2018-04-09T02:21:10.528Z,33.74
2018-04-09T02:21:11.127Z,34.03
2018-04-09T02:21:11.725Z,33.84
2018-04-09T02:21:12.325Z,33.64
2018-04-09T02:21:12.924Z,33.55
2018-04-09T02:21:13.524Z,33.74
2018-04-09T02:21:14.126Z,33.55
2018-04-09T02:22:07.670Z,36.98
2018-04-09T02:22:08.272Z,36.98
2018-04-09T02:22:08.866Z,37.08
2018-04-09T02:22:09.468Z,37.27
2018-04-09T02:22:10.064Z,37.27
2018-04-09T02:22:10.665Z,36.98
2018-04-09T02:22:11.265Z,37.84
2018-04-09T02:22:11.864Z,37.46
2018-04-09T02:23:05.934Z,38.03
2018-04-09T02:23:06.530Z,38.22
2018-04-09T02:23:07.134Z,37.84
2018-04-09T02:23:07.734Z,37.93
2018-04-09T02:23:08.330Z,37.65
2018-04-09T02:23:08.930Z,37.65
2018-04-09T02:23:09.533Z,37.65
2018-04-09T02:24:03.610Z,34.50
2018-04-09T02:24:04.184Z,34.60
2018-04-09T02:24:04.783Z,34.50
2018-04-09T02:24:05.383Z,34.31
2018-04-09T02:24:05.982Z,34.41
2018-04-09T02:24:06.581Z,34.12
2018-04-09T02:24:07.184Z,34.03
2018-04-09T02:25:00.727Z,33.07
2018-04-09T02:25:01.322Z,33.17
2018-04-09T02:25:01.925Z,33.17
2018-04-09T02:25:02.522Z,32.98
2018-04-09T02:25:03.124Z,32.98
2018-04-09T02:25:03.723Z,32.88
2018-04-09T02:25:04.322Z,32.60
2018-04-09T02:25:04.922Z,32.88
2018-04-09T02:25:58.991Z,33.64
2018-04-09T02:25:59.590Z,33.84
2018-04-09T02:26:00.189Z,33.84
2018-04-09T02:26:00.788Z,33.84
2018-04-09T02:26:01.389Z,33.74
2018-04-09T02:26:01.991Z,33.74
2018-04-09T02:26:02.588Z,33.74
2018-04-09T02:26:56.646Z,32.40
2018-04-09T02:26:57.242Z,32.31
2018-04-09T02:26:57.840Z,32.31
2018-04-09T02:26:58.440Z,32.31
2018-04-09T02:26:59.039Z,32.03
2018-04-09T02:26:59.640Z,32.69
2018-04-09T02:27:00.244Z,32.21
2018-04-09T02:27:53.787Z,33.36
2018-04-09T02:27:54.381Z,32.98
2018-04-09T02:27:54.981Z,33.36
2018-04-09T02:27:55.584Z,33.07
2018-04-09T02:27:56.181Z,33.36
2018-04-09T02:27:56.780Z,33.36
2018-04-09T02:27:57.381Z,33.26
2018-04-09T02:27:57.980Z,33.26
2018-04-09T02:28:52.084Z,33.64
2018-04-09T02:28:52.646Z,33.84
2018-04-09T02:28:53.245Z,33.45
2018-04-09T02:28:53.845Z,33.45
2018-04-09T02:28:54.445Z,33.36
2018-04-09T02:28:55.053Z,33.64
2018-04-09T02:28:55.644Z,33.55
2018-04-09T02:29:49.700Z,34.03
2018-04-09T02:29:50.297Z,33.64
2018-04-09T02:29:50.896Z,33.93
2018-04-09T02:29:51.497Z,34.03
2018-04-09T02:29:52.097Z,33.45
2018-04-09T02:29:52.698Z,33.64
2018-04-09T02:29:53.296Z,33.55
2018-04-09T02:30:47.353Z,35.08
2018-04-09T02:30:47.949Z,34.60
2018-04-09T02:30:48.550Z,34.60
2018-04-09T02:30:49.149Z,34.50
2018-04-09T02:30:49.750Z,34.50
2018-04-09T02:30:50.350Z,34.03
2018-04-09T02:30:50.949Z,34.50
2018-04-09T02:31:45.005Z,33.55
2018-04-09T02:31:45.601Z,33.64
2018-04-09T02:31:46.202Z,33.84
2018-04-09T02:31:46.801Z,33.64
2018-04-09T02:31:47.400Z,33.84
2018-04-09T02:31:47.999Z,33.74
2018-04-09T02:31:48.604Z,33.74
2018-04-09T02:32:42.655Z,36.51
2018-04-09T02:32:43.253Z,36.51
2018-04-09T02:32:43.852Z,36.12
2018-04-09T02:32:44.451Z,36.22
2018-04-09T02:32:45.052Z,36.32
2018-04-09T02:32:45.653Z,35.93
2018-04-09T02:32:46.253Z,36.32
2018-04-09T02:33:40.314Z,35.55
2018-04-09T02:33:40.904Z,35.64
2018-04-09T02:33:41.503Z,35.55
2018-04-09T02:33:42.103Z,35.36
2018-04-09T02:33:42.704Z,35.27
2018-04-09T02:33:43.303Z,35.27
2018-04-09T02:33:43.903Z,35.17
2018-04-09T02:34:37.995Z,37.08
2018-04-09T02:34:38.558Z,36.88
2018-04-09T02:34:39.156Z,36.98
2018-04-09T02:34:39.757Z,36.98
2018-04-09T02:34:40.357Z,36.79
2018-04-09T02:34:40.956Z,36.69
2018-04-09T02:34:41.558Z,36.51
2018-04-09T02:35:35.614Z,36.41
2018-04-09T02:35:36.208Z,36.60
2018-04-09T02:35:36.807Z,36.60
2018-04-09T02:35:37.407Z,36.60
2018-04-09T02:35:38.008Z,36.60
2018-04-09T02:35:38.606Z,36.60
2018-04-09T02:35:39.209Z,36.60
2018-04-09T02:36:33.262Z,37.46
2018-04-09T02:36:33.863Z,37.46
2018-04-09T02:36:34.459Z,37.84
2018-04-09T02:36:35.059Z,37.74
2018-04-09T02:36:35.659Z,37.74
2018-04-09T02:36:36.259Z,37.93
2018-04-09T02:36:36.858Z,37.74
2018-04-09T02:37:30.917Z,40.60
2018-04-09T02:37:31.511Z,40.60
2018-04-09T02:37:32.110Z,40.80
2018-04-09T02:37:32.710Z,40.70
2018-04-09T02:37:33.311Z,40.70
2018-04-09T02:37:33.910Z,40.99
2018-04-09T02:37:34.517Z,40.80
2018-04-09T02:38:28.572Z,38.89
2018-04-09T02:38:29.164Z,38.98
2018-04-09T02:38:29.764Z,38.41
2018-04-09T02:38:30.362Z,38.32
2018-04-09T02:38:30.962Z,38.60
2018-04-09T02:38:31.562Z,38.60
2018-04-09T02:38:32.161Z,38.32
2018-04-09T02:39:26.219Z,35.55
2018-04-09T02:39:26.814Z,35.36
2018-04-09T02:39:27.416Z,35.36
2018-04-09T02:39:28.014Z,35.46
2018-04-09T02:39:28.614Z,35.55
2018-04-09T02:39:29.214Z,35.36
2018-04-09T02:39:29.813Z,35.17
2018-04-09T02:40:23.903Z,36.69
2018-04-09T02:40:24.470Z,36.69
2018-04-09T02:40:25.066Z,36.98
2018-04-09T02:40:25.666Z,36.98
2018-04-09T02:40:26.266Z,37.08
2018-04-09T02:40:26.866Z,37.27
2018-04-09T02:40:27.466Z,36.98
2018-04-09T02:41:21.524Z,36.51
2018-04-09T02:41:22.120Z,36.60
2018-04-09T02:41:22.723Z,36.60
2018-04-09T02:41:23.318Z,36.62
2018-04-09T02:41:23.923Z,36.60
2018-04-09T02:41:24.517Z,36.51
2018-04-09T02:41:25.118Z,36.69
2018-04-09T02:42:19.176Z,37.08
2018-04-09T02:42:19.773Z,36.88
2018-04-09T02:42:20.368Z,36.88
2018-04-09T02:42:20.970Z,36.69
2018-04-09T02:42:21.568Z,36.69
2018-04-09T02:42:22.169Z,36.69
2018-04-09T02:42:22.769Z,36.79
2018-04-09T02:43:16.827Z,36.12
2018-04-09T02:43:17.422Z,36.32
2018-04-09T02:43:18.022Z,36.03
2018-04-09T02:43:18.626Z,36.12
2018-04-09T02:43:19.234Z,36.03
2018-04-09T02:43:19.822Z,36.12
2018-04-09T02:43:20.422Z,36.14
2018-04-09T02:44:14.479Z,38.51
2018-04-09T02:44:15.074Z,38.51
2018-04-09T02:44:15.673Z,38.79
2018-04-09T02:44:16.273Z,38.79
2018-04-09T02:44:16.873Z,38.51
2018-04-09T02:44:17.475Z,38.91
2018-04-09T02:44:18.080Z,38.79
2018-04-09T02:45:12.128Z,40.22
2018-04-09T02:45:12.725Z,40.12
2018-04-09T02:45:13.323Z,40.03
2018-04-09T02:45:13.928Z,40.12
2018-04-09T02:45:14.523Z,40.12
2018-04-09T02:45:15.123Z,40.22
2018-04-09T02:45:15.723Z,40.22
2018-04-09T02:46:09.807Z,39.08
2018-04-09T02:46:10.385Z,39.08
2018-04-09T02:46:10.984Z,39.08
2018-04-09T02:46:11.576Z,38.89
2018-04-09T02:46:12.176Z,38.70
2018-04-09T02:46:12.776Z,38.91
2018-04-09T02:46:13.377Z,38.41
2018-04-09T02:47:07.433Z,39.56
2018-04-09T02:47:08.028Z,39.56
2018-04-09T02:47:08.628Z,39.56
2018-04-09T02:47:09.229Z,40.41
2018-04-09T02:47:09.830Z,40.41
2018-04-09T02:47:10.428Z,39.84
2018-04-09T02:47:11.028Z,39.94
2018-04-09T02:48:05.088Z,37.55
2018-04-09T02:48:05.680Z,37.27
2018-04-09T02:48:06.280Z,37.36
2018-04-09T02:48:06.880Z,37.08
2018-04-09T02:48:07.479Z,37.27
2018-04-09T02:48:08.080Z,37.08
2018-04-09T02:48:08.681Z,37.17
2018-04-09T02:49:02.736Z,39.84
2018-04-09T02:49:03.332Z,39.84
2018-04-09T02:49:03.930Z,39.65
2018-04-09T02:49:04.531Z,39.84
2018-04-09T02:49:05.132Z,39.75
2018-04-09T02:49:05.732Z,39.84
2018-04-09T02:49:06.332Z,39.84
2018-04-09T02:50:00.386Z,39.65
2018-04-09T02:50:00.982Z,39.36
2018-04-09T02:50:01.582Z,39.46
2018-04-09T02:50:02.183Z,39.56
2018-04-09T02:50:02.783Z,39.84
2018-04-09T02:50:03.383Z,39.75
2018-04-09T02:50:03.983Z,39.65
2018-04-09T02:50:58.071Z,40.99
2018-04-09T02:50:58.634Z,41.36
2018-04-09T02:50:59.236Z,41.56
2018-04-09T02:50:59.834Z,41.65
2018-04-09T02:51:00.437Z,41.65
2018-04-09T02:51:01.032Z,41.75
2018-04-09T02:51:01.633Z,41.65
2018-04-09T02:51:55.693Z,41.75
2018-04-09T02:51:56.287Z,41.27
2018-04-09T02:51:56.888Z,41.27
2018-04-09T02:51:57.491Z,41.56
2018-04-09T02:51:58.085Z,41.27
2018-04-09T02:51:58.686Z,41.17
2018-04-09T02:51:59.287Z,41.27
2018-04-09T02:52:53.344Z,39.94
2018-04-09T02:52:53.938Z,39.84
2018-04-09T02:52:54.537Z,40.32
2018-04-09T02:52:55.138Z,39.94
2018-04-09T02:52:55.737Z,39.94
2018-04-09T02:52:56.339Z,40.22
2018-04-09T02:52:56.958Z,40.03
2018-04-09T02:53:50.994Z,43.46
2018-04-09T02:53:51.593Z,43.46
2018-04-09T02:53:52.187Z,43.49
2018-04-09T02:53:52.792Z,43.65
2018-04-09T02:53:53.387Z,43.56
2018-04-09T02:53:53.987Z,43.84
2018-04-09T02:53:54.588Z,43.65
2018-04-09T03:12:13.256Z,33.63
2018-04-09T03:12:13.830Z,33.82
2018-04-09T03:12:14.427Z,34.01
2018-04-09T03:12:15.028Z,33.72
2018-04-09T03:12:15.627Z,33.82
2018-04-09T03:12:16.226Z,33.82
2018-04-09T03:12:16.826Z,33.44
2018-04-09T03:13:10.916Z,34.11
2018-04-09T03:13:11.481Z,34.11
2018-04-09T03:13:12.081Z,33.34
2018-04-09T03:13:12.709Z,33.44
2018-04-09T03:13:13.279Z,33.53
2018-04-09T03:13:13.883Z,33.72
2018-04-09T03:13:14.480Z,33.72
2018-04-09T03:14:08.535Z,32.58
2018-04-09T03:14:09.135Z,32.58
2018-04-09T03:14:09.735Z,32.68
2018-04-09T03:14:10.332Z,32.68
2018-04-09T03:14:10.932Z,32.68
2018-04-09T03:14:11.532Z,32.68
2018-04-09T03:14:12.131Z,32.77
2018-04-09T03:15:06.187Z,32.39
2018-04-09T03:15:06.785Z,32.77
2018-04-09T03:15:07.385Z,32.87
2018-04-09T03:15:07.984Z,32.68
2018-04-09T03:15:08.583Z,32.58
2018-04-09T03:15:09.192Z,32.77
2018-04-09T03:15:09.786Z,32.77
2018-04-09T03:16:03.840Z,32.87
2018-04-09T03:16:04.440Z,32.77
2018-04-09T03:16:05.036Z,32.77
2018-04-09T03:16:05.636Z,33.06
2018-04-09T03:16:06.238Z,32.87
2018-04-09T03:16:06.835Z,32.87
2018-04-09T03:16:07.435Z,32.87
2018-04-09T03:17:00.986Z,32.29
2018-04-09T03:17:01.578Z,32.10
2018-04-09T03:17:02.179Z,32.01
2018-04-09T03:17:02.781Z,32.01
2018-04-09T03:17:03.380Z,32.01
2018-04-09T03:17:03.977Z,31.92
2018-04-09T03:17:04.576Z,31.72
2018-04-09T03:17:05.181Z,31.72
2018-04-09T03:17:59.145Z,31.72
2018-04-09T03:17:59.746Z,31.34
2018-04-09T03:18:00.340Z,31.34
2018-04-09T03:18:00.941Z,31.05
2018-04-09T03:18:01.570Z,31.05
2018-04-09T03:18:02.138Z,31.44
2018-04-09T03:18:02.737Z,31.63
2018-04-09T03:19:16.788Z,33.53
2018-04-09T03:19:17.360Z,33.06
2018-04-09T03:19:17.959Z,32.87
2018-04-09T03:19:18.560Z,32.68
2018-04-09T03:19:19.161Z,32.58
2018-04-09T03:19:19.759Z,32.68
2018-04-09T03:19:20.359Z,32.68
2018-04-09T03:20:13.905Z,32.77
2018-04-09T03:20:14.502Z,32.87
2018-04-09T03:20:15.102Z,32.68
2018-04-09T03:20:15.702Z,32.87
2018-04-09T03:20:16.301Z,32.77
2018-04-09T03:20:16.905Z,32.87
2018-04-09T03:20:17.501Z,32.48
2018-04-09T03:20:18.101Z,32.48
2018-04-09T03:21:12.169Z,32.01
2018-04-09T03:21:12.767Z,31.82
2018-04-09T03:21:13.372Z,32.01
2018-04-09T03:21:13.967Z,32.09
2018-04-09T03:21:14.567Z,32.20
2018-04-09T03:21:15.210Z,32.20
2018-04-09T03:21:15.816Z,32.01
2018-04-09T03:22:09.822Z,31.82
2018-04-09T03:22:10.419Z,31.24
2018-04-09T03:22:11.019Z,31.53
2018-04-09T03:22:11.618Z,31.53
2018-04-09T03:22:12.218Z,31.44
2018-04-09T03:22:12.819Z,31.92
2018-04-09T03:22:13.417Z,31.44
2018-04-09T03:23:06.993Z,32.77
2018-04-09T03:23:07.560Z,32.96
2018-04-09T03:23:08.158Z,32.68
2018-04-09T03:23:08.759Z,32.77
2018-04-09T03:23:09.360Z,32.87
2018-04-09T03:23:09.959Z,32.87
2018-04-09T03:23:10.560Z,32.95
2018-04-09T03:23:11.159Z,32.96
2018-04-09T03:24:05.228Z,31.90
2018-04-09T03:24:05.829Z,31.72
2018-04-09T03:24:06.427Z,31.63
2018-04-09T03:24:07.028Z,31.72
2018-04-09T03:24:07.624Z,31.72
2018-04-09T03:24:08.223Z,31.63
2018-04-09T03:24:08.825Z,31.42
2018-04-09T03:25:02.882Z,29.42
2018-04-09T03:25:03.479Z,29.53
2018-04-09T03:25:04.076Z,29.34
2018-04-09T03:25:04.677Z,29.53
2018-04-09T03:25:05.276Z,29.42
2018-04-09T03:25:05.875Z,29.72
2018-04-09T03:25:06.476Z,29.63
2018-04-09T03:26:00.530Z,28.94
2018-04-09T03:26:01.130Z,28.86
2018-04-09T03:26:01.728Z,28.86
2018-04-09T03:26:02.328Z,28.96
2018-04-09T03:26:02.932Z,29.05
2018-04-09T03:26:03.528Z,28.77
2018-04-09T03:26:04.128Z,28.77
2018-04-09T03:26:57.674Z,28.20
2018-04-09T03:26:58.274Z,28.29
2018-04-09T03:26:58.869Z,28.58
2018-04-09T03:26:59.469Z,28.49
2018-04-09T03:27:00.071Z,28.49
2018-04-09T03:27:00.670Z,28.39
2018-04-09T03:27:01.269Z,28.39
2018-04-09T03:27:01.869Z,28.29
2018-04-09T03:27:55.938Z,26.58
2018-04-09T03:27:56.534Z,26.67
2018-04-09T03:27:57.135Z,26.67
2018-04-09T03:27:57.734Z,26.58
2018-04-09T03:27:58.332Z,26.58
2018-04-09T03:27:58.936Z,26.48
2018-04-09T03:27:59.534Z,26.58
2018-04-09T03:28:53.614Z,26.77
2018-04-09T03:28:54.186Z,26.48
2018-04-09T03:28:54.785Z,26.58
2018-04-09T03:28:55.386Z,26.48
2018-04-09T03:28:55.986Z,26.39
2018-04-09T03:28:56.582Z,26.20
2018-04-09T03:28:57.184Z,25.82
2018-04-09T03:29:50.729Z,24.67
2018-04-09T03:29:51.332Z,24.58
2018-04-09T03:29:51.927Z,24.58
2018-04-09T03:29:52.528Z,24.48
2018-04-09T03:29:53.127Z,24.58
2018-04-09T03:29:53.726Z,24.77
2018-04-09T03:29:54.328Z,24.87
2018-04-09T03:29:54.934Z,24.87
2018-04-09T03:30:48.996Z,22.86
2018-04-09T03:30:49.595Z,23.05
2018-04-09T03:30:50.192Z,22.86
2018-04-09T03:30:50.795Z,22.86
2018-04-09T03:30:51.392Z,22.67
2018-04-09T03:30:51.991Z,22.67
2018-04-09T03:30:52.594Z,22.67
2018-04-09T03:31:46.647Z,26.48
2018-04-09T03:31:47.245Z,26.67
2018-04-09T03:31:47.843Z,26.58
2018-04-09T03:31:48.444Z,26.77
2018-04-09T03:31:49.044Z,26.77
2018-04-09T03:31:49.644Z,26.48
2018-04-09T03:31:50.243Z,27.06
2018-04-09T03:32:44.298Z,25.34
2018-04-09T03:32:44.894Z,25.43
2018-04-09T03:32:45.499Z,25.53
2018-04-09T03:32:46.095Z,25.82
2018-04-09T03:32:46.695Z,25.53
2018-04-09T03:32:47.294Z,25.62
2018-04-09T03:32:47.894Z,25.72
2018-04-09T03:33:41.471Z,28.01
2018-04-09T03:33:42.039Z,28.10
2018-04-09T03:33:42.636Z,28.29
2018-04-09T03:33:43.236Z,28.29
2018-04-09T03:33:43.836Z,28.29
2018-04-09T03:33:44.436Z,28.29
2018-04-09T03:33:45.036Z,28.20
2018-04-09T03:33:45.636Z,28.01
2018-04-09T03:34:39.703Z,30.96
2018-04-09T03:34:40.302Z,31.34
2018-04-09T03:34:40.902Z,31.24
2018-04-09T03:34:41.501Z,31.24
2018-04-09T03:34:42.101Z,31.24
2018-04-09T03:34:42.701Z,31.34
2018-04-09T03:34:43.302Z,31.34
2018-04-09T03:35:36.844Z,33.53
2018-04-09T03:35:37.442Z,33.34
2018-04-09T03:35:38.041Z,33.53
2018-04-09T03:35:38.642Z,33.63
2018-04-09T03:35:39.241Z,33.44
2018-04-09T03:35:39.844Z,33.53
2018-04-09T03:35:40.446Z,33.63
2018-04-09T03:35:41.042Z,33.53
2018-04-09T03:36:35.110Z,35.15
2018-04-09T03:36:35.708Z,35.25
2018-04-09T03:36:36.307Z,35.44
2018-04-09T03:36:36.907Z,34.67
2018-04-09T03:36:37.506Z,34.96
2018-04-09T03:36:38.106Z,34.87
2018-04-09T03:36:38.708Z,34.77
2018-04-09T03:37:32.761Z,35.53
2018-04-09T03:37:33.358Z,35.63
2018-04-09T03:37:33.958Z,35.53
2018-04-09T03:37:34.557Z,35.82
2018-04-09T03:37:35.158Z,35.82
2018-04-09T03:37:35.757Z,35.91
2018-04-09T03:37:36.356Z,35.82
2018-04-09T03:38:30.412Z,34.30
2018-04-09T03:38:31.011Z,33.63
2018-04-09T03:38:31.609Z,33.91
2018-04-09T03:38:32.209Z,33.82
2018-04-09T03:38:32.809Z,34.01
2018-04-09T03:38:33.413Z,33.63
2018-04-09T03:38:34.017Z,33.63
2018-04-09T03:39:28.102Z,28.10
2018-04-09T03:39:28.662Z,27.91
2018-04-09T03:39:29.261Z,27.44
2018-04-09T03:39:29.864Z,27.25
2018-04-09T03:39:30.461Z,27.44
2018-04-09T03:39:31.061Z,27.44
2018-04-09T03:39:31.661Z,27.53
2018-04-09T03:40:25.211Z,27.53
2018-04-09T03:40:25.802Z,27.91
2018-04-09T03:40:26.403Z,27.91
2018-04-09T03:40:27.005Z,27.91
2018-04-09T03:40:27.602Z,27.72
2018-04-09T03:40:28.203Z,27.81
2018-04-09T03:40:28.802Z,28.10
2018-04-09T03:40:29.403Z,27.81
2018-04-09T03:41:23.470Z,28.10
2018-04-09T03:41:24.068Z,28.01
2018-04-09T03:41:24.668Z,28.01
2018-04-09T03:41:25.267Z,28.39
2018-04-09T03:41:25.867Z,28.39
2018-04-09T03:41:26.470Z,28.39
2018-04-09T03:41:27.068Z,28.39
2018-04-09T03:42:21.123Z,27.44
2018-04-09T03:42:21.735Z,27.53
2018-04-09T03:42:22.326Z,26.96
2018-04-09T03:42:22.973Z,26.96
2018-04-09T03:42:23.538Z,26.96
2018-04-09T03:42:24.136Z,27.25
2018-04-09T03:42:24.722Z,27.06
2018-04-09T03:43:18.774Z,29.91
2018-04-09T03:43:19.371Z,30.10
2018-04-09T03:43:19.970Z,30.39
2018-04-09T03:43:20.570Z,30.29
2018-04-09T03:43:21.171Z,29.82
2018-04-09T03:43:21.770Z,30.10
2018-04-09T03:43:22.369Z,30.10
2018-04-09T03:44:16.425Z,29.63
2018-04-09T03:44:17.023Z,29.63
2018-04-09T03:44:17.622Z,29.34
2018-04-09T03:44:18.223Z,29.72
2018-04-09T03:44:18.822Z,29.63
2018-04-09T03:44:19.422Z,29.63
2018-04-09T03:44:20.023Z,29.34
2018-04-09T03:45:14.102Z,28.49
2018-04-09T03:45:14.676Z,27.91
2018-04-09T03:45:15.273Z,28.29
2018-04-09T03:45:15.874Z,28.39
2018-04-09T03:45:16.474Z,28.49
2018-04-09T03:45:17.073Z,27.91
2018-04-09T03:45:17.675Z,28.01
2018-04-09T03:46:11.730Z,28.86
2018-04-09T03:46:12.326Z,28.96
2018-04-09T03:46:12.926Z,28.96
2018-04-09T03:46:13.526Z,29.15
2018-04-09T03:46:14.126Z,28.96
2018-04-09T03:46:14.726Z,29.05
2018-04-09T03:46:15.325Z,28.96
2018-04-09T03:47:09.380Z,32.39
2018-04-09T03:47:09.979Z,32.39
2018-04-09T03:47:10.579Z,32.39
2018-04-09T03:47:11.178Z,32.29
2018-04-09T03:47:11.778Z,32.20
2018-04-09T03:47:12.378Z,32.10
2018-04-09T03:47:12.985Z,32.29
2018-04-09T03:48:06.522Z,31.92
2018-04-09T03:48:07.117Z,31.92
2018-04-09T03:48:07.719Z,32.01
2018-04-09T03:48:08.318Z,31.72
2018-04-09T03:48:08.918Z,31.82
2018-04-09T03:48:09.518Z,31.92
2018-04-09T03:48:10.117Z,31.63
2018-04-09T03:48:10.718Z,31.34
2018-04-09T03:49:04.277Z,33.72
2018-04-09T03:49:04.874Z,33.72
2018-04-09T03:49:05.479Z,33.53
2018-04-09T03:49:06.072Z,33.91
2018-04-09T03:49:06.673Z,33.72
2018-04-09T03:49:07.273Z,33.63
2018-04-09T03:49:07.872Z,33.72
2018-04-09T03:49:08.474Z,33.82
2018-04-09T03:50:02.062Z,37.44
2018-04-09T03:50:02.626Z,37.44
2018-04-09T03:50:03.226Z,37.34
2018-04-09T03:50:03.825Z,37.06
2018-04-09T03:50:04.426Z,37.34
2018-04-09T03:50:05.026Z,37.34
2018-04-09T03:50:05.626Z,37.15
2018-04-09T03:50:06.227Z,37.34
2018-04-09T03:50:59.786Z,36.10
2018-04-09T03:51:00.380Z,35.91
2018-04-09T03:51:00.981Z,36.39
2018-04-09T03:51:01.580Z,36.20
2018-04-09T03:51:02.180Z,36.20
2018-04-09T03:51:02.785Z,35.91
2018-04-09T03:51:03.381Z,35.91
2018-04-09T03:51:03.978Z,36.01
2018-04-09T03:51:57.539Z,36.30
2018-04-09T03:51:58.135Z,36.30
2018-04-09T03:51:58.736Z,36.39
2018-04-09T03:51:59.336Z,36.20
2018-04-09T03:51:59.934Z,36.30
2018-04-09T03:52:00.535Z,36.01
2018-04-09T03:52:01.134Z,36.20
2018-04-09T03:52:01.732Z,36.10
2018-04-09T03:52:55.804Z,30.58
2018-04-09T03:52:56.400Z,30.58
2018-04-09T03:52:56.999Z,30.77
2018-04-09T03:52:57.599Z,30.68
2018-04-09T03:52:58.199Z,30.77
2018-04-09T03:52:58.798Z,30.77
2018-04-09T03:52:59.398Z,30.68
2018-04-09T03:53:52.943Z,30.39
2018-04-09T03:53:53.541Z,30.39
2018-04-09T03:53:54.141Z,30.68
2018-04-09T03:53:54.742Z,30.77
2018-04-09T03:53:55.339Z,30.68
2018-04-09T03:53:55.941Z,30.77
2018-04-09T03:53:56.540Z,30.58
2018-04-09T03:53:57.144Z,30.39
2018-04-09T03:54:51.207Z,30.96
2018-04-09T03:54:51.805Z,31.34
2018-04-09T03:54:52.406Z,30.96
2018-04-09T03:54:53.009Z,31.05
2018-04-09T03:54:53.605Z,30.96
2018-04-09T03:54:54.206Z,31.34
2018-04-09T03:54:54.806Z,30.77
2018-04-09T03:55:48.890Z,31.15
2018-04-09T03:55:49.456Z,30.96
2018-04-09T03:55:50.057Z,30.87
2018-04-09T03:55:50.657Z,30.77
2018-04-09T03:55:51.257Z,30.77
2018-04-09T03:55:51.856Z,30.77
2018-04-09T03:55:52.458Z,30.96
2018-04-09T03:56:46.001Z,28.86
2018-04-09T03:56:46.598Z,28.86
2018-04-09T03:56:47.199Z,28.86
2018-04-09T03:56:47.799Z,28.96
2018-04-09T03:56:48.399Z,28.77
2018-04-09T03:56:49.004Z,29.15
2018-04-09T03:56:49.599Z,29.25
2018-04-09T03:56:50.198Z,29.25
2018-04-09T03:57:44.266Z,30.87
2018-04-09T03:57:44.863Z,30.49
2018-04-09T03:57:45.462Z,30.49
2018-04-09T03:57:46.062Z,30.68
2018-04-09T03:57:46.662Z,30.68
2018-04-09T03:57:47.263Z,30.58
2018-04-09T03:57:47.862Z,30.58
2018-04-09T03:58:41.918Z,31.92
2018-04-09T03:58:42.516Z,31.72
2018-04-09T03:58:43.115Z,31.44
2018-04-09T03:58:43.714Z,31.53
2018-04-09T03:58:44.314Z,31.44
2018-04-09T03:58:44.914Z,31.24
2018-04-09T03:58:45.520Z,31.15
2018-04-09T03:59:39.060Z,30.39
2018-04-09T03:59:39.656Z,30.68
2018-04-09T03:59:40.264Z,30.49
2018-04-09T03:59:40.855Z,30.68
2018-04-09T03:59:41.456Z,30.58